METAR Data
IDs: Format: Raw Decoded Include TAF

Data at: 0242 UTC 25 Feb 2021

KSZT 250235Z AUTO 21004KT 10SM OVC044 00/M04 A3045 RMK AO2